Terminal Aerodrome Forecast
Issued by NWS

Home | Current Version | Previous Version | Graphics & Text | Print | Product List | Glossary On
Versions: 1 2 3 4 5 6 7 8 9 10 11 12 13 14 15 16 17 18 19
000
FTUS43 KIWX 232300
TAFSBN
TAF
KSBN 232320Z 2400/2424 18005KT P6SM OVC100
     FM240800 05005KT 4SM -RA BR OVC050
     FM241300 03012KT 2SM RA BR OVC007
     FM242000 34016G23KT 1SM -SN BR OVC004=

USA.gov is the U.S. government's official web portal to all federal, state and local government web resources and services.